sensor_id;sensor_type;location;lat;lon;timestamp;P1;durP1;ratioP1;P2;durP2;ratioP2
20621;SDS011;10470;42.670;23.354;2022-12-26T00:00:05;32.07;;;17.70;;
20621;SDS011;10470;42.670;23.354;2022-12-26T00:02:55;29.90;;;14.70;;
20621;SDS011;10470;42.670;23.354;2022-12-26T00:05:41;31.87;;;16.43;;
20621;SDS011;10470;42.670;23.354;2022-12-26T00:08:26;27.33;;;15.57;;
20621;SDS011;10470;42.670;23.354;2022-12-26T00:11:12;31.83;;;16.57;;
20621;SDS011;10470;42.670;23.354;2022-12-26T00:13:59;30.07;;;17.70;;
20621;SDS011;10470;42.670;23.354;2022-12-26T00:16:47;33.50;;;17.93;;
20621;SDS011;10470;42.670;23.354;2022-12-26T00:19:25;30.50;;;16.87;;
20621;SDS011;10470;42.670;23.354;2022-12-26T00:22:11;34.20;;;17.97;;
20621;SDS011;10470;42.670;23.354;2022-12-26T00:24:56;33.47;;;17.70;;
20621;SDS011;10470;42.670;23.354;2022-12-26T00:27:42;26.57;;;14.93;;
20621;SDS011;10470;42.670;23.354;2022-12-26T00:30:27;26.03;;;15.07;;
20621;SDS011;10470;42.670;23.354;2022-12-26T00:33:13;30.17;;;16.30;;
20621;SDS011;10470;42.670;23.354;2022-12-26T00:36:05;27.43;;;14.83;;
20621;SDS011;10470;42.670;23.354;2022-12-26T00:38:53;26.10;;;14.27;;
20621;SDS011;10470;42.670;23.354;2022-12-26T00:41:40;29.53;;;15.37;;
20621;SDS011;10470;42.670;23.354;2022-12-26T00:44:25;27.73;;;14.60;;
20621;SDS011;10470;42.670;23.354;2022-12-26T00:47:11;24.40;;;14.43;;
20621;SDS011;10470;42.670;23.354;2022-12-26T00:49:56;25.73;;;14.63;;
20621;SDS011;10470;42.670;23.354;2022-12-26T00:52:41;27.43;;;14.80;;
20621;SDS011;10470;42.670;23.354;2022-12-26T00:55:14;27.87;;;15.03;;
20621;SDS011;10470;42.670;23.354;2022-12-26T00:58:00;23.27;;;14.07;;
20621;SDS011;10470;42.670;23.354;2022-12-26T01:00:46;23.93;;;14.70;;
20621;SDS011;10470;42.670;23.354;2022-12-26T01:03:32;28.23;;;15.37;;
20621;SDS011;10470;42.670;23.354;2022-12-26T01:06:17;25.80;;;14.63;;
20621;SDS011;10470;42.670;23.354;2022-12-26T01:09:03;24.93;;;14.10;;
20621;SDS011;10470;42.670;23.354;2022-12-26T01:11:35;29.13;;;15.20;;
20621;SDS011;10470;42.670;23.354;2022-12-26T01:14:26;24.87;;;14.67;;
20621;SDS011;10470;42.670;23.354;2022-12-26T01:17:12;31.30;;;17.50;;
20621;SDS011;10470;42.670;23.354;2022-12-26T01:19:57;33.17;;;18.47;;
20621;SDS011;10470;42.670;23.354;2022-12-26T01:22:43;30.40;;;16.57;;
20621;SDS011;10470;42.670;23.354;2022-12-26T01:25:29;29.53;;;17.10;;
20621;SDS011;10470;42.670;23.354;2022-12-26T01:28:14;32.00;;;18.87;;
20621;SDS011;10470;42.670;23.354;2022-12-26T01:31:00;31.63;;;18.07;;
20621;SDS011;10470;42.670;23.354;2022-12-26T01:33:47;37.97;;;20.00;;
20621;SDS011;10470;42.670;23.354;2022-12-26T01:36:33;35.07;;;19.80;;
20621;SDS011;10470;42.670;23.354;2022-12-26T01:39:18;37.47;;;20.30;;
20621;SDS011;10470;42.670;23.354;2022-12-26T01:42:14;40.70;;;20.93;;
20621;SDS011;10470;42.670;23.354;2022-12-26T01:45:05;47.40;;;25.13;;
20621;SDS011;10470;42.670;23.354;2022-12-26T01:48:21;46.90;;;24.33;;
20621;SDS011;10470;42.670;23.354;2022-12-26T01:51:17;42.47;;;22.67;;
20621;SDS011;10470;42.670;23.354;2022-12-26T01:54:07;45.70;;;22.30;;
20621;SDS011;10470;42.670;23.354;2022-12-26T01:56:55;42.47;;;21.33;;
20621;SDS011;10470;42.670;23.354;2022-12-26T01:59:41;44.10;;;22.47;;
20621;SDS011;10470;42.670;23.354;2022-12-26T02:02:28;44.70;;;22.63;;
20621;SDS011;10470;42.670;23.354;2022-12-26T02:05:35;39.73;;;21.90;;
20621;SDS011;10470;42.670;23.354;2022-12-26T02:08:23;42.37;;;21.83;;
20621;SDS011;10470;42.670;23.354;2022-12-26T02:14:45;40.47;;;21.33;;
20621;SDS011;10470;42.670;23.354;2022-12-26T02:17:29;41.03;;;23.20;;
20621;SDS011;10470;42.670;23.354;2022-12-26T02:20:18;40.53;;;21.93;;
20621;SDS011;10470;42.670;23.354;2022-12-26T02:36:08;42.40;;;22.90;;
20621;SDS011;10470;42.670;23.354;2022-12-26T02:42:20;42.10;;;23.27;;
20621;SDS011;10470;42.670;23.354;2022-12-26T02:45:22;39.87;;;22.40;;
20621;SDS011;10470;42.670;23.354;2022-12-26T02:48:38;40.90;;;22.47;;
20621;SDS011;10470;42.670;23.354;2022-12-26T02:58:20;43.07;;;23.87;;
20621;SDS011;10470;42.670;23.354;2022-12-26T03:01:33;40.30;;;22.40;;
20621;SDS011;10470;42.670;23.354;2022-12-26T03:04:43;43.03;;;23.63;;
20621;SDS011;10470;42.670;23.354;2022-12-26T03:07:51;39.97;;;22.63;;
20621;SDS011;10470;42.670;23.354;2022-12-26T03:10:46;42.13;;;22.53;;
20621;SDS011;10470;42.670;23.354;2022-12-26T03:13:52;45.63;;;24.40;;
20621;SDS011;10470;42.670;23.354;2022-12-26T03:16:39;44.10;;;23.43;;
20621;SDS011;10470;42.670;23.354;2022-12-26T03:19:43;42.13;;;23.00;;
20621;SDS011;10470;42.670;23.354;2022-12-26T03:25:58;47.33;;;24.03;;
20621;SDS011;10470;42.670;23.354;2022-12-26T03:29:08;42.83;;;21.90;;
20621;SDS011;10470;42.670;23.354;2022-12-26T03:32:15;39.53;;;21.57;;
20621;SDS011;10470;42.670;23.354;2022-12-26T03:35:00;39.10;;;21.93;;
20621;SDS011;10470;42.670;23.354;2022-12-26T03:38:11;40.23;;;22.30;;
20621;SDS011;10470;42.670;23.354;2022-12-26T03:41:15;42.40;;;22.97;;
20621;SDS011;10470;42.670;23.354;2022-12-26T03:44:34;45.67;;;22.17;;
20621;SDS011;10470;42.670;23.354;2022-12-26T03:51:06;38.33;;;21.57;;
20621;SDS011;10470;42.670;23.354;2022-12-26T03:54:19;38.77;;;21.70;;
20621;SDS011;10470;42.670;23.354;2022-12-26T03:57:32;40.23;;;22.30;;
20621;SDS011;10470;42.670;23.354;2022-12-26T04:00:52;44.27;;;23.17;;
20621;SDS011;10470;42.670;23.354;2022-12-26T04:03:57;45.37;;;24.10;;
20621;SDS011;10470;42.670;23.354;2022-12-26T04:07:06;44.93;;;23.47;;
20621;SDS011;10470;42.670;23.354;2022-12-26T04:10:20;44.00;;;22.43;;
20621;SDS011;10470;42.670;23.354;2022-12-26T04:13:31;42.80;;;23.20;;
20621;SDS011;10470;42.670;23.354;2022-12-26T04:17:04;41.07;;;22.10;;
20621;SDS011;10470;42.670;23.354;2022-12-26T04:23:21;43.40;;;21.63;;
20621;SDS011;10470;42.670;23.354;2022-12-26T04:26:38;38.33;;;21.23;;
20621;SDS011;10470;42.670;23.354;2022-12-26T04:29:50;30.60;;;16.33;;
20621;SDS011;10470;42.670;23.354;2022-12-26T04:32:54;25.00;;;14.50;;
20621;SDS011;10470;42.670;23.354;2022-12-26T04:36:06;38.13;;;19.97;;
20621;SDS011;10470;42.670;23.354;2022-12-26T04:39:16;35.23;;;18.87;;
20621;SDS011;10470;42.670;23.354;2022-12-26T04:42:24;37.70;;;19.63;;
20621;SDS011;10470;42.670;23.354;2022-12-26T04:45:30;37.40;;;20.97;;
20621;SDS011;10470;42.670;23.354;2022-12-26T04:48:18;38.83;;;20.87;;
20621;SDS011;10470;42.670;23.354;2022-12-26T04:51:22;36.73;;;19.37;;
20621;SDS011;10470;42.670;23.354;2022-12-26T04:54:08;34.33;;;19.57;;
20621;SDS011;10470;42.670;23.354;2022-12-26T04:56:54;35.37;;;19.73;;
20621;SDS011;10470;42.670;23.354;2022-12-26T04:59:39;32.63;;;19.43;;
20621;SDS011;10470;42.670;23.354;2022-12-26T05:02:24;36.77;;;18.70;;
20621;SDS011;10470;42.670;23.354;2022-12-26T05:05:30;37.30;;;18.07;;
20621;SDS011;10470;42.670;23.354;2022-12-26T05:08:40;36.27;;;19.80;;
20621;SDS011;10470;42.670;23.354;2022-12-26T05:11:45;33.40;;;18.23;;
20621;SDS011;10470;42.670;23.354;2022-12-26T05:14:31;33.03;;;18.30;;
20621;SDS011;10470;42.670;23.354;2022-12-26T05:17:19;33.47;;;18.37;;
20621;SDS011;10470;42.670;23.354;2022-12-26T05:20:23;34.03;;;17.83;;
20621;SDS011;10470;42.670;23.354;2022-12-26T05:23:22;40.50;;;19.80;;
20621;SDS011;10470;42.670;23.354;2022-12-26T05:26:28;38.83;;;19.80;;
20621;SDS011;10470;42.670;23.354;2022-12-26T05:29:32;35.77;;;19.17;;
20621;SDS011;10470;42.670;23.354;2022-12-26T05:32:17;32.93;;;18.30;;
20621;SDS011;10470;42.670;23.354;2022-12-26T05:35:21;35.63;;;18.43;;
20621;SDS011;10470;42.670;23.354;2022-12-26T05:38:08;33.57;;;17.33;;
20621;SDS011;10470;42.670;23.354;2022-12-26T05:40:54;32.27;;;17.20;;
20621;SDS011;10470;42.670;23.354;2022-12-26T05:43:40;30.83;;;16.33;;
20621;SDS011;10470;42.670;23.354;2022-12-26T05:46:26;40.10;;;18.83;;
20621;SDS011;10470;42.670;23.354;2022-12-26T05:49:02;40.40;;;22.53;;
20621;SDS011;10470;42.670;23.354;2022-12-26T05:51:49;42.93;;;22.13;;
20621;SDS011;10470;42.670;23.354;2022-12-26T05:54:21;41.47;;;23.57;;
20621;SDS011;10470;42.670;23.354;2022-12-26T05:57:07;36.73;;;20.13;;
20621;SDS011;10470;42.670;23.354;2022-12-26T05:59:52;36.43;;;21.57;;
20621;SDS011;10470;42.670;23.354;2022-12-26T06:02:37;42.23;;;23.27;;
20621;SDS011;10470;42.670;23.354;2022-12-26T06:05:23;36.47;;;20.70;;
20621;SDS011;10470;42.670;23.354;2022-12-26T06:08:08;46.77;;;24.80;;
20621;SDS011;10470;42.670;23.354;2022-12-26T06:10:54;43.37;;;23.90;;
20621;SDS011;10470;42.670;23.354;2022-12-26T06:13:40;41.87;;;23.17;;
20621;SDS011;10470;42.670;23.354;2022-12-26T06:16:26;42.67;;;22.23;;
20621;SDS011;10470;42.670;23.354;2022-12-26T06:19:12;46.87;;;24.33;;
20621;SDS011;10470;42.670;23.354;2022-12-26T06:21:57;42.60;;;23.27;;
20621;SDS011;10470;42.670;23.354;2022-12-26T06:24:43;46.57;;;23.87;;
20621;SDS011;10470;42.670;23.354;2022-12-26T06:27:28;42.60;;;21.73;;
20621;SDS011;10470;42.670;23.354;2022-12-26T06:30:14;36.87;;;19.50;;
20621;SDS011;10470;42.670;23.354;2022-12-26T06:32:59;39.67;;;22.20;;
20621;SDS011;10470;42.670;23.354;2022-12-26T06:35:28;40.23;;;21.57;;
20621;SDS011;10470;42.670;23.354;2022-12-26T06:38:14;44.80;;;23.20;;
20621;SDS011;10470;42.670;23.354;2022-12-26T06:40:59;42.37;;;22.53;;
20621;SDS011;10470;42.670;23.354;2022-12-26T06:43:45;43.57;;;22.97;;
20621;SDS011;10470;42.670;23.354;2022-12-26T06:46:31;41.17;;;21.50;;
20621;SDS011;10470;42.670;23.354;2022-12-26T06:49:16;38.33;;;19.90;;
20621;SDS011;10470;42.670;23.354;2022-12-26T06:52:02;34.77;;;19.50;;
20621;SDS011;10470;42.670;23.354;2022-12-26T06:54:47;37.83;;;20.87;;
20621;SDS011;10470;42.670;23.354;2022-12-26T06:57:33;36.40;;;20.17;;
20621;SDS011;10470;42.670;23.354;2022-12-26T07:00:18;37.77;;;21.40;;
20621;SDS011;10470;42.670;23.354;2022-12-26T07:02:52;38.87;;;21.43;;
20621;SDS011;10470;42.670;23.354;2022-12-26T07:05:37;39.50;;;22.23;;
20621;SDS011;10470;42.670;23.354;2022-12-26T07:08:23;50.77;;;23.47;;
20621;SDS011;10470;42.670;23.354;2022-12-26T07:11:15;42.63;;;24.67;;
20621;SDS011;10470;42.670;23.354;2022-12-26T07:14:02;47.50;;;25.90;;
20621;SDS011;10470;42.670;23.354;2022-12-26T07:16:48;48.27;;;25.80;;
20621;SDS011;10470;42.670;23.354;2022-12-26T07:19:27;50.83;;;31.07;;
20621;SDS011;10470;42.670;23.354;2022-12-26T07:22:13;47.23;;;28.57;;
20621;SDS011;10470;42.670;23.354;2022-12-26T07:24:59;40.63;;;23.03;;
20621;SDS011;10470;42.670;23.354;2022-12-26T07:27:44;38.50;;;21.60;;
20621;SDS011;10470;42.670;23.354;2022-12-26T07:30:30;52.30;;;25.90;;
20621;SDS011;10470;42.670;23.354;2022-12-26T07:33:16;39.57;;;21.70;;
20621;SDS011;10470;42.670;23.354;2022-12-26T07:36:03;37.80;;;20.23;;
20621;SDS011;10470;42.670;23.354;2022-12-26T07:38:50;37.60;;;20.27;;
20621;SDS011;10470;42.670;23.354;2022-12-26T07:41:35;40.03;;;20.20;;
20621;SDS011;10470;42.670;23.354;2022-12-26T07:44:39;34.60;;;19.47;;
20621;SDS011;10470;42.670;23.354;2022-12-26T07:47:26;32.87;;;18.80;;
20621;SDS011;10470;42.670;23.354;2022-12-26T07:50:11;34.63;;;18.23;;
20621;SDS011;10470;42.670;23.354;2022-12-26T07:52:57;32.60;;;16.53;;
20621;SDS011;10470;42.670;23.354;2022-12-26T07:55:37;29.27;;;16.93;;
20621;SDS011;10470;42.670;23.354;2022-12-26T07:58:23;23.10;;;14.43;;
20621;SDS011;10470;42.670;23.354;2022-12-26T08:01:08;23.87;;;14.30;;
20621;SDS011;10470;42.670;23.354;2022-12-26T08:03:54;18.97;;;12.40;;
20621;SDS011;10470;42.670;23.354;2022-12-26T08:06:39;21.63;;;12.67;;
20621;SDS011;10470;42.670;23.354;2022-12-26T08:09:25;20.27;;;12.97;;
20621;SDS011;10470;42.670;23.354;2022-12-26T08:12:10;23.43;;;12.53;;
20621;SDS011;10470;42.670;23.354;2022-12-26T08:14:57;21.47;;;11.87;;
20621;SDS011;10470;42.670;23.354;2022-12-26T08:17:43;23.53;;;14.40;;
20621;SDS011;10470;42.670;23.354;2022-12-26T08:20:28;28.13;;;16.87;;
20621;SDS011;10470;42.670;23.354;2022-12-26T08:23:14;31.53;;;18.23;;
20621;SDS011;10470;42.670;23.354;2022-12-26T08:26:07;29.53;;;17.20;;
20621;SDS011;10470;42.670;23.354;2022-12-26T08:28:54;27.80;;;16.37;;
20621;SDS011;10470;42.670;23.354;2022-12-26T08:31:41;29.10;;;17.60;;
20621;SDS011;10470;42.670;23.354;2022-12-26T08:34:33;28.97;;;17.27;;
20621;SDS011;10470;42.670;23.354;2022-12-26T08:37:19;30.77;;;17.10;;
20621;SDS011;10470;42.670;23.354;2022-12-26T08:40:06;32.40;;;18.17;;
20621;SDS011;10470;42.670;23.354;2022-12-26T08:42:51;34.73;;;19.73;;
20621;SDS011;10470;42.670;23.354;2022-12-26T08:45:37;34.07;;;19.60;;
20621;SDS011;10470;42.670;23.354;2022-12-26T08:48:23;55.50;;;28.03;;
20621;SDS011;10470;42.670;23.354;2022-12-26T08:51:11;33.80;;;19.70;;
20621;SDS011;10470;42.670;23.354;2022-12-26T08:53:58;30.30;;;17.93;;
20621;SDS011;10470;42.670;23.354;2022-12-26T08:56:44;31.57;;;20.23;;
20621;SDS011;10470;42.670;23.354;2022-12-26T08:59:29;33.60;;;21.10;;
20621;SDS011;10470;42.670;23.354;2022-12-26T09:02:15;42.13;;;24.70;;
20621;SDS011;10470;42.670;23.354;2022-12-26T09:05:00;37.50;;;23.30;;
20621;SDS011;10470;42.670;23.354;2022-12-26T09:07:46;34.97;;;21.93;;
20621;SDS011;10470;42.670;23.354;2022-12-26T09:10:32;38.47;;;20.90;;
20621;SDS011;10470;42.670;23.354;2022-12-26T09:13:14;37.03;;;21.83;;
20621;SDS011;10470;42.670;23.354;2022-12-26T09:16:04;35.00;;;21.83;;
20621;SDS011;10470;42.670;23.354;2022-12-26T09:18:56;35.20;;;20.20;;
20621;SDS011;10470;42.670;23.354;2022-12-26T09:21:44;34.63;;;20.43;;
20621;SDS011;10470;42.670;23.354;2022-12-26T09:24:30;33.50;;;19.27;;
20621;SDS011;10470;42.670;23.354;2022-12-26T09:27:15;31.60;;;18.33;;
20621;SDS011;10470;42.670;23.354;2022-12-26T09:30:01;30.37;;;17.50;;
20621;SDS011;10470;42.670;23.354;2022-12-26T09:32:46;27.73;;;17.67;;
20621;SDS011;10470;42.670;23.354;2022-12-26T09:35:32;28.40;;;17.67;;
20621;SDS011;10470;42.670;23.354;2022-12-26T09:38:03;28.80;;;17.57;;
20621;SDS011;10470;42.670;23.354;2022-12-26T09:40:55;29.90;;;17.57;;
20621;SDS011;10470;42.670;23.354;2022-12-26T09:53:18;27.43;;;17.23;;
20621;SDS011;10470;42.670;23.354;2022-12-26T09:56:14;26.20;;;17.67;;
20621;SDS011;10470;42.670;23.354;2022-12-26T09:59:06;28.33;;;17.37;;
20621;SDS011;10470;42.670;23.354;2022-12-26T10:02:01;25.43;;;15.80;;
20621;SDS011;10470;42.670;23.354;2022-12-26T10:04:48;27.37;;;16.77;;
20621;SDS011;10470;42.670;23.354;2022-12-26T10:10:28;26.37;;;16.00;;
20621;SDS011;10470;42.670;23.354;2022-12-26T10:16:26;20.90;;;14.03;;
20621;SDS011;10470;42.670;23.354;2022-12-26T10:25:40;17.67;;;10.17;;
20621;SDS011;10470;42.670;23.354;2022-12-26T10:28:38;16.00;;;11.07;;
20621;SDS011;10470;42.670;23.354;2022-12-26T10:31:49;17.73;;;11.03;;
20621;SDS011;10470;42.670;23.354;2022-12-26T10:34:41;19.70;;;11.87;;
20621;SDS011;10470;42.670;23.354;2022-12-26T10:37:36;19.00;;;11.87;;
20621;SDS011;10470;42.670;23.354;2022-12-26T10:40:38;19.07;;;12.27;;
20621;SDS011;10470;42.670;23.354;2022-12-26T10:43:30;21.53;;;15.87;;
20621;SDS011;10470;42.670;23.354;2022-12-26T10:46:38;22.20;;;14.13;;
20621;SDS011;10470;42.670;23.354;2022-12-26T10:49:44;18.33;;;12.57;;
20621;SDS011;10470;42.670;23.354;2022-12-26T10:52:32;15.70;;;10.73;;
20621;SDS011;10470;42.670;23.354;2022-12-26T10:55:25;17.70;;;11.10;;
20621;SDS011;10470;42.670;23.354;2022-12-26T10:58:21;17.47;;;10.80;;
20621;SDS011;10470;42.670;23.354;2022-12-26T11:04:18;16.40;;;10.57;;
20621;SDS011;10470;42.670;23.354;2022-12-26T11:07:07;17.83;;;10.03;;
20621;SDS011;10470;42.670;23.354;2022-12-26T11:09:55;13.80;;;9.20;;
20621;SDS011;10470;42.670;23.354;2022-12-26T11:12:46;14.40;;;9.50;;
20621;SDS011;10470;42.670;23.354;2022-12-26T11:15:37;14.07;;;9.23;;
20621;SDS011;10470;42.670;23.354;2022-12-26T11:18:35;11.67;;;8.20;;
20621;SDS011;10470;42.670;23.354;2022-12-26T11:21:25;12.73;;;9.23;;
20621;SDS011;10470;42.670;23.354;2022-12-26T11:24:17;14.83;;;9.87;;
20621;SDS011;10470;42.670;23.354;2022-12-26T11:27:17;13.50;;;9.83;;
20621;SDS011;10470;42.670;23.354;2022-12-26T11:33:05;16.50;;;10.40;;
20621;SDS011;10470;42.670;23.354;2022-12-26T11:38:57;15.77;;;10.83;;
20621;SDS011;10470;42.670;23.354;2022-12-26T11:41:44;13.20;;;9.40;;
20621;SDS011;10470;42.670;23.354;2022-12-26T11:44:34;16.37;;;8.87;;
20621;SDS011;10470;42.670;23.354;2022-12-26T11:47:25;16.00;;;8.93;;
20621;SDS011;10470;42.670;23.354;2022-12-26T11:50:13;13.63;;;8.43;;
20621;SDS011;10470;42.670;23.354;2022-12-26T11:53:05;15.33;;;8.20;;
20621;SDS011;10470;42.670;23.354;2022-12-26T11:56:02;13.73;;;8.03;;
20621;SDS011;10470;42.670;23.354;2022-12-26T11:58:49;12.47;;;8.17;;
20621;SDS011;10470;42.670;23.354;2022-12-26T12:01:43;11.13;;;7.60;;
20621;SDS011;10470;42.670;23.354;2022-12-26T12:04:28;12.20;;;7.80;;
20621;SDS011;10470;42.670;23.354;2022-12-26T12:07:20;15.47;;;8.73;;
20621;SDS011;10470;42.670;23.354;2022-12-26T12:13:27;13.00;;;8.30;;
20621;SDS011;10470;42.670;23.354;2022-12-26T12:16:21;14.30;;;8.13;;
20621;SDS011;10470;42.670;23.354;2022-12-26T12:31:23;17.20;;;12.00;;
20621;SDS011;10470;42.670;23.354;2022-12-26T12:37:52;14.97;;;8.63;;
20621;SDS011;10470;42.670;23.354;2022-12-26T12:41:05;13.87;;;9.57;;
20621;SDS011;10470;42.670;23.354;2022-12-26T12:46:55;14.63;;;10.43;;
20621;SDS011;10470;42.670;23.354;2022-12-26T12:58:37;15.63;;;9.50;;
20621;SDS011;10470;42.670;23.354;2022-12-26T13:01:50;16.33;;;9.67;;
20621;SDS011;10470;42.670;23.354;2022-12-26T13:04:41;12.67;;;8.17;;
20621;SDS011;10470;42.670;23.354;2022-12-26T13:07:33;16.33;;;10.00;;
20621;SDS011;10470;42.670;23.354;2022-12-26T13:10:28;17.00;;;8.77;;
20621;SDS011;10470;42.670;23.354;2022-12-26T13:13:31;15.00;;;8.60;;
20621;SDS011;10470;42.670;23.354;2022-12-26T13:16:18;15.73;;;8.37;;
20621;SDS011;10470;42.670;23.354;2022-12-26T13:19:11;14.17;;;8.37;;
20621;SDS011;10470;42.670;23.354;2022-12-26T13:21:56;12.97;;;7.80;;
20621;SDS011;10470;42.670;23.354;2022-12-26T13:24:47;14.13;;;8.17;;
20621;SDS011;10470;42.670;23.354;2022-12-26T13:27:38;16.57;;;8.10;;
20621;SDS011;10470;42.670;23.354;2022-12-26T13:30:24;11.57;;;7.90;;
20621;SDS011;10470;42.670;23.354;2022-12-26T13:33:11;11.33;;;7.50;;
20621;SDS011;10470;42.670;23.354;2022-12-26T13:36:01;13.30;;;7.93;;
20621;SDS011;10470;42.670;23.354;2022-12-26T13:54:33;9.43;;;5.20;;
20621;SDS011;10470;42.670;23.354;2022-12-26T13:57:22;10.63;;;6.20;;
20621;SDS011;10470;42.670;23.354;2022-12-26T14:33:49;12.67;;;6.43;;
20621;SDS011;10470;42.670;23.354;2022-12-26T14:37:09;14.33;;;8.17;;
20621;SDS011;10470;42.670;23.354;2022-12-26T14:40:34;9.83;;;6.30;;
20621;SDS011;10470;42.670;23.354;2022-12-26T14:43:34;13.30;;;7.00;;
20621;SDS011;10470;42.670;23.354;2022-12-26T14:49:37;14.30;;;6.27;;
20621;SDS011;10470;42.670;23.354;2022-12-26T15:04:18;17.27;;;8.87;;
20621;SDS011;10470;42.670;23.354;2022-12-26T15:25:47;38.27;;;17.17;;
20621;SDS011;10470;42.670;23.354;2022-12-26T15:32:05;23.50;;;11.40;;
20621;SDS011;10470;42.670;23.354;2022-12-26T15:34:55;22.90;;;9.83;;
20621;SDS011;10470;42.670;23.354;2022-12-26T15:38:03;16.97;;;9.93;;
20621;SDS011;10470;42.670;23.354;2022-12-26T15:41:23;20.90;;;11.90;;
20621;SDS011;10470;42.670;23.354;2022-12-26T15:47:22;19.30;;;10.83;;
20621;SDS011;10470;42.670;23.354;2022-12-26T15:50:28;19.70;;;10.50;;
20621;SDS011;10470;42.670;23.354;2022-12-26T15:53:34;19.10;;;9.93;;
20621;SDS011;10470;42.670;23.354;2022-12-26T16:11:31;21.70;;;10.60;;
20621;SDS011;10470;42.670;23.354;2022-12-26T16:14:33;24.07;;;11.33;;
20621;SDS011;10470;42.670;23.354;2022-12-26T16:20:14;20.20;;;11.30;;
20621;SDS011;10470;42.670;23.354;2022-12-26T16:23:25;23.23;;;13.10;;
20621;SDS011;10470;42.670;23.354;2022-12-26T16:26:23;20.67;;;11.10;;
20621;SDS011;10470;42.670;23.354;2022-12-26T16:29:17;27.73;;;14.03;;
20621;SDS011;10470;42.670;23.354;2022-12-26T16:32:05;22.47;;;14.10;;
20621;SDS011;10470;42.670;23.354;2022-12-26T16:34:51;22.77;;;13.97;;
20621;SDS011;10470;42.670;23.354;2022-12-26T16:37:37;32.93;;;15.67;;
20621;SDS011;10470;42.670;23.354;2022-12-26T16:40:33;24.63;;;12.87;;
20621;SDS011;10470;42.670;23.354;2022-12-26T16:43:29;26.97;;;14.07;;
20621;SDS011;10470;42.670;23.354;2022-12-26T16:46:18;28.97;;;13.37;;
20621;SDS011;10470;42.670;23.354;2022-12-26T16:49:08;33.40;;;14.80;;
20621;SDS011;10470;42.670;23.354;2022-12-26T16:51:45;34.40;;;15.30;;
20621;SDS011;10470;42.670;23.354;2022-12-26T16:54:37;31.30;;;15.33;;
20621;SDS011;10470;42.670;23.354;2022-12-26T16:57:24;27.27;;;14.43;;
20621;SDS011;10470;42.670;23.354;2022-12-26T17:00:15;30.63;;;13.87;;
20621;SDS011;10470;42.670;23.354;2022-12-26T17:03:03;26.90;;;14.00;;
20621;SDS011;10470;42.670;23.354;2022-12-26T17:05:54;31.47;;;15.67;;
20621;SDS011;10470;42.670;23.354;2022-12-26T17:08:42;25.57;;;14.53;;
20621;SDS011;10470;42.670;23.354;2022-12-26T17:11:32;28.37;;;15.70;;
20621;SDS011;10470;42.670;23.354;2022-12-26T17:14:24;31.47;;;18.13;;
20621;SDS011;10470;42.670;23.354;2022-12-26T17:23:33;40.37;;;20.43;;
20621;SDS011;10470;42.670;23.354;2022-12-26T17:26:24;37.90;;;18.57;;
20621;SDS011;10470;42.670;23.354;2022-12-26T17:32:26;42.27;;;20.87;;
20621;SDS011;10470;42.670;23.354;2022-12-26T17:35:24;44.53;;;21.00;;
20621;SDS011;10470;42.670;23.354;2022-12-26T17:38:14;46.90;;;19.83;;
20621;SDS011;10470;42.670;23.354;2022-12-26T17:41:03;40.87;;;22.27;;
20621;SDS011;10470;42.670;23.354;2022-12-26T17:43:50;42.67;;;22.30;;
20621;SDS011;10470;42.670;23.354;2022-12-26T17:46:36;47.57;;;23.60;;
20621;SDS011;10470;42.670;23.354;2022-12-26T17:49:22;44.80;;;23.67;;
20621;SDS011;10470;42.670;23.354;2022-12-26T17:52:08;41.40;;;21.43;;
20621;SDS011;10470;42.670;23.354;2022-12-26T17:54:56;48.37;;;22.80;;
20621;SDS011;10470;42.670;23.354;2022-12-26T17:57:42;42.93;;;21.33;;
20621;SDS011;10470;42.670;23.354;2022-12-26T18:00:27;38.90;;;21.33;;
20621;SDS011;10470;42.670;23.354;2022-12-26T18:03:13;50.67;;;24.93;;
20621;SDS011;10470;42.670;23.354;2022-12-26T18:05:58;44.10;;;21.73;;
20621;SDS011;10470;42.670;23.354;2022-12-26T18:08:44;42.80;;;22.23;;
20621;SDS011;10470;42.670;23.354;2022-12-26T18:11:29;41.60;;;21.37;;
20621;SDS011;10470;42.670;23.354;2022-12-26T18:14:15;43.60;;;21.80;;
20621;SDS011;10470;42.670;23.354;2022-12-26T18:17:00;45.13;;;22.53;;
20621;SDS011;10470;42.670;23.354;2022-12-26T18:19:47;46.40;;;20.97;;
20621;SDS011;10470;42.670;23.354;2022-12-26T18:22:35;41.63;;;21.53;;
20621;SDS011;10470;42.670;23.354;2022-12-26T18:25:19;37.20;;;19.77;;
20621;SDS011;10470;42.670;23.354;2022-12-26T18:28:13;40.67;;;21.07;;
20621;SDS011;10470;42.670;23.354;2022-12-26T18:31:00;48.00;;;22.73;;
20621;SDS011;10470;42.670;23.354;2022-12-26T18:33:46;45.70;;;22.60;;
20621;SDS011;10470;42.670;23.354;2022-12-26T18:36:33;44.73;;;23.50;;
20621;SDS011;10470;42.670;23.354;2022-12-26T18:39:20;46.63;;;23.77;;
20621;SDS011;10470;42.670;23.354;2022-12-26T18:42:07;44.37;;;21.63;;
20621;SDS011;10470;42.670;23.354;2022-12-26T18:44:47;47.27;;;23.47;;
20621;SDS011;10470;42.670;23.354;2022-12-26T18:47:32;47.50;;;24.10;;
20621;SDS011;10470;42.670;23.354;2022-12-26T18:50:18;47.27;;;24.60;;
20621;SDS011;10470;42.670;23.354;2022-12-26T18:53:04;55.70;;;25.23;;
20621;SDS011;10470;42.670;23.354;2022-12-26T18:55:49;69.20;;;32.77;;
20621;SDS011;10470;42.670;23.354;2022-12-26T18:58:34;48.30;;;24.60;;
20621;SDS011;10470;42.670;23.354;2022-12-26T19:01:20;49.03;;;25.10;;
20621;SDS011;10470;42.670;23.354;2022-12-26T19:04:05;48.57;;;24.80;;
20621;SDS011;10470;42.670;23.354;2022-12-26T19:06:51;44.07;;;22.37;;
20621;SDS011;10470;42.670;23.354;2022-12-26T19:09:41;43.93;;;23.53;;
20621;SDS011;10470;42.670;23.354;2022-12-26T19:12:28;42.00;;;23.00;;
20621;SDS011;10470;42.670;23.354;2022-12-26T19:15:13;45.43;;;24.13;;
20621;SDS011;10470;42.670;23.354;2022-12-26T19:17:59;51.53;;;27.40;;
20621;SDS011;10470;42.670;23.354;2022-12-26T19:20:45;55.40;;;28.83;;
20621;SDS011;10470;42.670;23.354;2022-12-26T19:23:30;55.83;;;27.47;;
20621;SDS011;10470;42.670;23.354;2022-12-26T19:26:16;56.40;;;27.27;;
20621;SDS011;10470;42.670;23.354;2022-12-26T19:29:02;66.20;;;30.60;;
20621;SDS011;10470;42.670;23.354;2022-12-26T19:31:48;66.33;;;30.10;;
20621;SDS011;10470;42.670;23.354;2022-12-26T19:34:33;53.60;;;29.10;;
20621;SDS011;10470;42.670;23.354;2022-12-26T19:37:18;55.90;;;29.37;;
20621;SDS011;10470;42.670;23.354;2022-12-26T19:40:04;55.73;;;28.37;;
20621;SDS011;10470;42.670;23.354;2022-12-26T19:42:51;53.87;;;28.30;;
20621;SDS011;10470;42.670;23.354;2022-12-26T19:45:37;53.97;;;27.33;;
20621;SDS011;10470;42.670;23.354;2022-12-26T19:48:22;52.00;;;28.10;;
20621;SDS011;10470;42.670;23.354;2022-12-26T19:51:09;58.17;;;28.93;;
20621;SDS011;10470;42.670;23.354;2022-12-26T19:53:55;51.03;;;27.43;;
20621;SDS011;10470;42.670;23.354;2022-12-26T19:56:41;55.23;;;26.63;;
20621;SDS011;10470;42.670;23.354;2022-12-26T19:59:26;46.50;;;26.60;;
20621;SDS011;10470;42.670;23.354;2022-12-26T20:02:12;53.83;;;26.93;;